sensor_id;sensor_type;location;lat;lon;timestamp;temperature;humidity
22544;DHT22;11438;52.044;8.716;2022-07-10T00:01:56;19.20;75.40
22544;DHT22;11438;52.044;8.716;2022-07-10T00:04:21;19.20;75.70
22544;DHT22;11438;52.044;8.716;2022-07-10T00:06:47;19.20;75.80
22544;DHT22;11438;52.044;8.716;2022-07-10T00:09:13;19.20;75.90
22544;DHT22;11438;52.044;8.716;2022-07-10T00:11:39;19.20;76.20
22544;DHT22;11438;52.044;8.716;2022-07-10T00:14:05;19.20;76.20
22544;DHT22;11438;52.044;8.716;2022-07-10T00:16:30;19.20;76.10
22544;DHT22;11438;52.044;8.716;2022-07-10T00:18:56;19.20;76.10
22544;DHT22;11438;52.044;8.716;2022-07-10T00:21:21;19.20;76.10
22544;DHT22;11438;52.044;8.716;2022-07-10T00:23:47;19.20;76.10
22544;DHT22;11438;52.044;8.716;2022-07-10T00:26:12;19.20;76.10
22544;DHT22;11438;52.044;8.716;2022-07-10T00:28:38;19.20;76.30
22544;DHT22;11438;52.044;8.716;2022-07-10T00:31:04;19.20;76.50
22544;DHT22;11438;52.044;8.716;2022-07-10T00:33:29;19.20;76.20
22544;DHT22;11438;52.044;8.716;2022-07-10T00:35:57;19.20;76.20
22544;DHT22;11438;52.044;8.716;2022-07-10T00:38:23;19.20;76.10
22544;DHT22;11438;52.044;8.716;2022-07-10T00:40:49;19.20;76.00
22544;DHT22;11438;52.044;8.716;2022-07-10T00:43:14;19.20;76.00
22544;DHT22;11438;52.044;8.716;2022-07-10T00:45:40;19.10;75.90
22544;DHT22;11438;52.044;8.716;2022-07-10T00:48:05;19.10;75.80
22544;DHT22;11438;52.044;8.716;2022-07-10T00:50:31;19.10;75.90
22544;DHT22;11438;52.044;8.716;2022-07-10T00:52:58;19.10;76.20
22544;DHT22;11438;52.044;8.716;2022-07-10T00:55:24;19.10;76.10
22544;DHT22;11438;52.044;8.716;2022-07-10T00:57:50;19.10;76.20
22544;DHT22;11438;52.044;8.716;2022-07-10T01:00:15;19.10;76.30
22544;DHT22;11438;52.044;8.716;2022-07-10T01:02:42;19.10;76.30
22544;DHT22;11438;52.044;8.716;2022-07-10T01:05:08;19.10;76.60
22544;DHT22;11438;52.044;8.716;2022-07-10T01:07:34;19.10;76.50
22544;DHT22;11438;52.044;8.716;2022-07-10T01:09:59;19.00;76.60
22544;DHT22;11438;52.044;8.716;2022-07-10T01:12:27;19.00;76.80
22544;DHT22;11438;52.044;8.716;2022-07-10T01:14:54;19.00;77.00
22544;DHT22;11438;52.044;8.716;2022-07-10T01:17:20;19.00;77.00
22544;DHT22;11438;52.044;8.716;2022-07-10T01:19:45;19.00;77.10
22544;DHT22;11438;52.044;8.716;2022-07-10T01:22:11;18.90;77.10
22544;DHT22;11438;52.044;8.716;2022-07-10T01:24:36;19.00;77.30
22544;DHT22;11438;52.044;8.716;2022-07-10T01:27:02;18.90;77.10
22544;DHT22;11438;52.044;8.716;2022-07-10T01:29:28;18.90;77.30
22544;DHT22;11438;52.044;8.716;2022-07-10T01:31:54;18.90;77.30
22544;DHT22;11438;52.044;8.716;2022-07-10T01:34:20;18.90;77.60
22544;DHT22;11438;52.044;8.716;2022-07-10T01:36:45;18.90;77.70
22544;DHT22;11438;52.044;8.716;2022-07-10T01:39:11;18.90;77.80
22544;DHT22;11438;52.044;8.716;2022-07-10T01:41:37;18.90;77.90
22544;DHT22;11438;52.044;8.716;2022-07-10T01:44:03;18.80;78.00
22544;DHT22;11438;52.044;8.716;2022-07-10T01:46:28;18.80;78.10
22544;DHT22;11438;52.044;8.716;2022-07-10T01:48:54;18.80;78.10
22544;DHT22;11438;52.044;8.716;2022-07-10T01:51:20;18.80;78.20
22544;DHT22;11438;52.044;8.716;2022-07-10T01:53:46;18.70;78.30
22544;DHT22;11438;52.044;8.716;2022-07-10T01:56:12;18.70;78.60
22544;DHT22;11438;52.044;8.716;2022-07-10T01:58:38;18.80;78.80
22544;DHT22;11438;52.044;8.716;2022-07-10T02:01:05;18.70;78.80
22544;DHT22;11438;52.044;8.716;2022-07-10T02:03:30;18.70;78.90
22544;DHT22;11438;52.044;8.716;2022-07-10T02:06:14;18.70;78.90
22544;DHT22;11438;52.044;8.716;2022-07-10T02:08:40;18.70;78.90
22544;DHT22;11438;52.044;8.716;2022-07-10T02:11:06;18.60;79.10
22544;DHT22;11438;52.044;8.716;2022-07-10T02:13:31;18.60;79.10
22544;DHT22;11438;52.044;8.716;2022-07-10T02:15:57;18.60;79.20
22544;DHT22;11438;52.044;8.716;2022-07-10T02:18:23;18.60;79.20
22544;DHT22;11438;52.044;8.716;2022-07-10T02:20:49;18.60;79.30
22544;DHT22;11438;52.044;8.716;2022-07-10T02:23:15;18.60;79.30
22544;DHT22;11438;52.044;8.716;2022-07-10T02:25:41;18.60;79.40
22544;DHT22;11438;52.044;8.716;2022-07-10T02:28:08;18.50;79.50
22544;DHT22;11438;52.044;8.716;2022-07-10T02:30:33;18.50;79.60
22544;DHT22;11438;52.044;8.716;2022-07-10T02:32:59;18.50;79.70
22544;DHT22;11438;52.044;8.716;2022-07-10T02:35:25;18.60;79.80
22544;DHT22;11438;52.044;8.716;2022-07-10T02:37:50;18.50;79.80
22544;DHT22;11438;52.044;8.716;2022-07-10T02:40:16;18.50;79.80
22544;DHT22;11438;52.044;8.716;2022-07-10T02:42:41;18.50;79.80
22544;DHT22;11438;52.044;8.716;2022-07-10T02:45:07;18.50;79.90
22544;DHT22;11438;52.044;8.716;2022-07-10T02:47:33;18.50;80.10
22544;DHT22;11438;52.044;8.716;2022-07-10T02:49:59;18.50;80.10
22544;DHT22;11438;52.044;8.716;2022-07-10T02:52:24;18.50;80.10
22544;DHT22;11438;52.044;8.716;2022-07-10T02:54:50;18.50;80.30
22544;DHT22;11438;52.044;8.716;2022-07-10T02:57:16;18.50;80.20
22544;DHT22;11438;52.044;8.716;2022-07-10T02:59:42;18.40;80.20
22544;DHT22;11438;52.044;8.716;2022-07-10T03:02:07;18.50;80.30
22544;DHT22;11438;52.044;8.716;2022-07-10T03:04:33;18.40;80.30
22544;DHT22;11438;52.044;8.716;2022-07-10T03:06:59;18.50;80.40
22544;DHT22;11438;52.044;8.716;2022-07-10T03:09:24;18.40;80.40
22544;DHT22;11438;52.044;8.716;2022-07-10T03:11:51;18.50;80.50
22544;DHT22;11438;52.044;8.716;2022-07-10T03:14:16;18.40;80.50
22544;DHT22;11438;52.044;8.716;2022-07-10T03:16:42;18.40;80.60
22544;DHT22;11438;52.044;8.716;2022-07-10T03:19:08;18.40;80.60
22544;DHT22;11438;52.044;8.716;2022-07-10T03:21:34;18.40;80.80
22544;DHT22;11438;52.044;8.716;2022-07-10T03:23:59;18.40;80.90
22544;DHT22;11438;52.044;8.716;2022-07-10T03:26:25;18.40;81.80
22544;DHT22;11438;52.044;8.716;2022-07-10T03:28:50;18.40;81.00
22544;DHT22;11438;52.044;8.716;2022-07-10T03:31:16;18.40;81.20
22544;DHT22;11438;52.044;8.716;2022-07-10T03:33:41;18.30;80.90
22544;DHT22;11438;52.044;8.716;2022-07-10T03:36:07;18.30;81.20
22544;DHT22;11438;52.044;8.716;2022-07-10T03:38:32;18.30;81.20
22544;DHT22;11438;52.044;8.716;2022-07-10T03:40:58;18.30;81.30
22544;DHT22;11438;52.044;8.716;2022-07-10T03:43:23;18.30;81.30
22544;DHT22;11438;52.044;8.716;2022-07-10T03:45:50;18.30;81.50
22544;DHT22;11438;52.044;8.716;2022-07-10T03:48:15;18.30;81.60
22544;DHT22;11438;52.044;8.716;2022-07-10T03:50:41;18.30;81.50
22544;DHT22;11438;52.044;8.716;2022-07-10T03:53:06;18.30;81.70
22544;DHT22;11438;52.044;8.716;2022-07-10T03:55:32;18.30;81.80
22544;DHT22;11438;52.044;8.716;2022-07-10T03:57:57;18.30;81.90
22544;DHT22;11438;52.044;8.716;2022-07-10T04:00:26;18.30;81.90
22544;DHT22;11438;52.044;8.716;2022-07-10T04:03:07;18.30;82.10
22544;DHT22;11438;52.044;8.716;2022-07-10T04:05:33;18.30;82.30
22544;DHT22;11438;52.044;8.716;2022-07-10T04:07:59;18.30;82.20
22544;DHT22;11438;52.044;8.716;2022-07-10T04:10:27;18.30;82.40
22544;DHT22;11438;52.044;8.716;2022-07-10T04:12:53;18.30;82.50
22544;DHT22;11438;52.044;8.716;2022-07-10T04:15:20;18.30;82.50
22544;DHT22;11438;52.044;8.716;2022-07-10T04:17:46;18.30;82.60
22544;DHT22;11438;52.044;8.716;2022-07-10T04:20:12;18.20;82.70
22544;DHT22;11438;52.044;8.716;2022-07-10T04:22:37;18.20;82.70
22544;DHT22;11438;52.044;8.716;2022-07-10T04:25:03;18.20;82.80
22544;DHT22;11438;52.044;8.716;2022-07-10T04:27:29;18.20;82.80
22544;DHT22;11438;52.044;8.716;2022-07-10T04:29:55;18.20;82.80
22544;DHT22;11438;52.044;8.716;2022-07-10T04:32:20;18.20;82.90
22544;DHT22;11438;52.044;8.716;2022-07-10T04:34:46;18.20;83.00
22544;DHT22;11438;52.044;8.716;2022-07-10T04:37:11;18.20;83.10
22544;DHT22;11438;52.044;8.716;2022-07-10T04:39:38;18.20;83.00
22544;DHT22;11438;52.044;8.716;2022-07-10T04:42:05;18.20;83.10
22544;DHT22;11438;52.044;8.716;2022-07-10T04:44:31;18.20;83.10
22544;DHT22;11438;52.044;8.716;2022-07-10T04:46:57;18.30;83.10
22544;DHT22;11438;52.044;8.716;2022-07-10T04:49:22;18.20;83.30
22544;DHT22;11438;52.044;8.716;2022-07-10T04:51:48;18.30;83.40
22544;DHT22;11438;52.044;8.716;2022-07-10T04:54:13;18.30;83.40
22544;DHT22;11438;52.044;8.716;2022-07-10T04:56:39;18.30;83.20
22544;DHT22;11438;52.044;8.716;2022-07-10T04:59:05;18.30;83.30
22544;DHT22;11438;52.044;8.716;2022-07-10T05:01:31;18.30;83.20
22544;DHT22;11438;52.044;8.716;2022-07-10T05:03:57;18.30;83.40
22544;DHT22;11438;52.044;8.716;2022-07-10T05:06:23;18.30;83.30
22544;DHT22;11438;52.044;8.716;2022-07-10T05:08:48;18.30;83.40
22544;DHT22;11438;52.044;8.716;2022-07-10T05:11:14;18.40;83.40
22544;DHT22;11438;52.044;8.716;2022-07-10T05:13:40;18.40;83.30
22544;DHT22;11438;52.044;8.716;2022-07-10T05:16:05;18.40;83.30
22544;DHT22;11438;52.044;8.716;2022-07-10T05:18:31;18.40;83.10
22544;DHT22;11438;52.044;8.716;2022-07-10T05:20:56;18.40;83.10
22544;DHT22;11438;52.044;8.716;2022-07-10T05:23:22;18.40;83.10
22544;DHT22;11438;52.044;8.716;2022-07-10T05:25:48;18.40;83.10
22544;DHT22;11438;52.044;8.716;2022-07-10T05:28:13;18.40;83.20
22544;DHT22;11438;52.044;8.716;2022-07-10T05:30:40;18.50;83.30
22544;DHT22;11438;52.044;8.716;2022-07-10T05:33:06;18.50;83.20
22544;DHT22;11438;52.044;8.716;2022-07-10T05:35:31;18.50;83.20
22544;DHT22;11438;52.044;8.716;2022-07-10T05:37:57;18.50;83.10
22544;DHT22;11438;52.044;8.716;2022-07-10T05:40:22;18.50;83.10
22544;DHT22;11438;52.044;8.716;2022-07-10T05:42:48;18.50;83.20
22544;DHT22;11438;52.044;8.716;2022-07-10T05:45:13;18.50;83.10
22544;DHT22;11438;52.044;8.716;2022-07-10T05:47:39;18.60;83.10
22544;DHT22;11438;52.044;8.716;2022-07-10T05:50:05;18.60;83.10
22544;DHT22;11438;52.044;8.716;2022-07-10T05:52:30;18.60;83.10
22544;DHT22;11438;52.044;8.716;2022-07-10T05:54:57;18.60;83.20
22544;DHT22;11438;52.044;8.716;2022-07-10T05:57:23;18.60;83.20
22544;DHT22;11438;52.044;8.716;2022-07-10T05:59:48;18.60;83.30
22544;DHT22;11438;52.044;8.716;2022-07-10T06:02:14;18.70;83.50
22544;DHT22;11438;52.044;8.716;2022-07-10T06:04:40;18.70;83.60
22544;DHT22;11438;52.044;8.716;2022-07-10T06:07:06;18.70;83.70
22544;DHT22;11438;52.044;8.716;2022-07-10T06:09:31;18.70;83.70
22544;DHT22;11438;52.044;8.716;2022-07-10T06:11:57;18.80;83.70
22544;DHT22;11438;52.044;8.716;2022-07-10T06:14:22;18.80;83.60
22544;DHT22;11438;52.044;8.716;2022-07-10T06:16:48;18.80;83.50
22544;DHT22;11438;52.044;8.716;2022-07-10T06:19:13;18.80;83.60
22544;DHT22;11438;52.044;8.716;2022-07-10T06:21:39;18.90;83.50
22544;DHT22;11438;52.044;8.716;2022-07-10T06:24:04;18.90;83.50
22544;DHT22;11438;52.044;8.716;2022-07-10T06:26:30;18.90;83.20
22544;DHT22;11438;52.044;8.716;2022-07-10T06:28:56;18.90;83.10
22544;DHT22;11438;52.044;8.716;2022-07-10T06:31:21;19.00;83.40
22544;DHT22;11438;52.044;8.716;2022-07-10T06:33:48;19.00;83.60
22544;DHT22;11438;52.044;8.716;2022-07-10T06:36:13;19.10;83.60
22544;DHT22;11438;52.044;8.716;2022-07-10T06:38:38;19.10;83.50
22544;DHT22;11438;52.044;8.716;2022-07-10T06:41:04;19.10;83.70
22544;DHT22;11438;52.044;8.716;2022-07-10T06:43:29;19.20;83.40
22544;DHT22;11438;52.044;8.716;2022-07-10T06:45:55;19.30;83.20
22544;DHT22;11438;52.044;8.716;2022-07-10T06:48:21;19.30;82.60
22544;DHT22;11438;52.044;8.716;2022-07-10T06:50:47;19.40;82.50
22544;DHT22;11438;52.044;8.716;2022-07-10T06:53:13;19.40;82.50
22544;DHT22;11438;52.044;8.716;2022-07-10T06:55:39;19.50;83.50
22544;DHT22;11438;52.044;8.716;2022-07-10T06:58:04;19.50;82.60
22544;DHT22;11438;52.044;8.716;2022-07-10T07:00:30;19.50;82.10
22544;DHT22;11438;52.044;8.716;2022-07-10T07:02:55;19.50;82.10
22544;DHT22;11438;52.044;8.716;2022-07-10T07:05:21;19.60;81.80
22544;DHT22;11438;52.044;8.716;2022-07-10T07:07:46;19.60;82.20
22544;DHT22;11438;52.044;8.716;2022-07-10T07:10:12;19.60;82.00
22544;DHT22;11438;52.044;8.716;2022-07-10T07:12:38;19.70;81.80
22544;DHT22;11438;52.044;8.716;2022-07-10T07:15:04;19.70;82.00
22544;DHT22;11438;52.044;8.716;2022-07-10T07:17:31;19.80;82.10
22544;DHT22;11438;52.044;8.716;2022-07-10T07:20:01;19.80;81.60
22544;DHT22;11438;52.044;8.716;2022-07-10T07:22:45;19.80;81.70
22544;DHT22;11438;52.044;8.716;2022-07-10T07:25:29;19.90;81.50
22544;DHT22;11438;52.044;8.716;2022-07-10T07:27:55;19.90;80.80
22544;DHT22;11438;52.044;8.716;2022-07-10T07:30:21;19.90;80.50
22544;DHT22;11438;52.044;8.716;2022-07-10T07:32:46;19.90;80.20
22544;DHT22;11438;52.044;8.716;2022-07-10T07:35:14;19.90;80.20
22544;DHT22;11438;52.044;8.716;2022-07-10T07:37:43;19.90;80.20
22544;DHT22;11438;52.044;8.716;2022-07-10T07:40:15;19.90;80.00
22544;DHT22;11438;52.044;8.716;2022-07-10T07:42:41;19.90;80.20
22544;DHT22;11438;52.044;8.716;2022-07-10T07:45:07;19.90;80.00
22544;DHT22;11438;52.044;8.716;2022-07-10T07:47:47;19.90;80.60
22544;DHT22;11438;52.044;8.716;2022-07-10T07:50:14;19.90;80.50
22544;DHT22;11438;52.044;8.716;2022-07-10T07:52:39;19.90;80.50
22544;DHT22;11438;52.044;8.716;2022-07-10T07:55:05;19.90;80.30
22544;DHT22;11438;52.044;8.716;2022-07-10T07:57:31;19.90;80.10
22544;DHT22;11438;52.044;8.716;2022-07-10T07:59:56;19.90;80.20
22544;DHT22;11438;52.044;8.716;2022-07-10T08:02:22;19.90;80.20
22544;DHT22;11438;52.044;8.716;2022-07-10T08:04:48;19.90;80.90
22544;DHT22;11438;52.044;8.716;2022-07-10T08:07:13;19.80;80.80
22544;DHT22;11438;52.044;8.716;2022-07-10T08:09:39;19.80;80.90
22544;DHT22;11438;52.044;8.716;2022-07-10T08:12:05;19.70;81.00
22544;DHT22;11438;52.044;8.716;2022-07-10T08:14:30;19.80;80.80
22544;DHT22;11438;52.044;8.716;2022-07-10T08:16:56;19.80;81.20
22544;DHT22;11438;52.044;8.716;2022-07-10T08:19:21;19.70;80.90
22544;DHT22;11438;52.044;8.716;2022-07-10T08:21:47;19.80;81.10
22544;DHT22;11438;52.044;8.716;2022-07-10T08:24:12;19.90;81.80
22544;DHT22;11438;52.044;8.716;2022-07-10T08:26:40;20.00;81.70
22544;DHT22;11438;52.044;8.716;2022-07-10T08:29:05;20.10;81.00
22544;DHT22;11438;52.044;8.716;2022-07-10T08:31:31;20.20;81.40
22544;DHT22;11438;52.044;8.716;2022-07-10T08:33:58;20.30;80.00
22544;DHT22;11438;52.044;8.716;2022-07-10T08:36:24;20.40;79.20
22544;DHT22;11438;52.044;8.716;2022-07-10T08:38:50;20.50;78.60
22544;DHT22;11438;52.044;8.716;2022-07-10T08:41:17;20.50;78.30
22544;DHT22;11438;52.044;8.716;2022-07-10T08:43:45;20.60;79.00
22544;DHT22;11438;52.044;8.716;2022-07-10T08:46:12;20.60;79.20
22544;DHT22;11438;52.044;8.716;2022-07-10T08:48:39;20.80;79.20
22544;DHT22;11438;52.044;8.716;2022-07-10T08:51:07;20.80;78.20
22544;DHT22;11438;52.044;8.716;2022-07-10T08:53:35;20.90;77.60
22544;DHT22;11438;52.044;8.716;2022-07-10T08:56:02;21.00;77.10
22544;DHT22;11438;52.044;8.716;2022-07-10T08:58:29;21.10;76.70
22544;DHT22;11438;52.044;8.716;2022-07-10T09:00:57;21.20;76.40
22544;DHT22;11438;52.044;8.716;2022-07-10T09:03:23;21.20;76.50
22544;DHT22;11438;52.044;8.716;2022-07-10T09:05:48;21.30;76.20
22544;DHT22;11438;52.044;8.716;2022-07-10T09:08:26;21.40;75.20
22544;DHT22;11438;52.044;8.716;2022-07-10T09:13:52;21.50;74.30
22544;DHT22;11438;52.044;8.716;2022-07-10T09:16:32;21.60;74.30
22544;DHT22;11438;52.044;8.716;2022-07-10T09:19:23;21.60;74.30
22544;DHT22;11438;52.044;8.716;2022-07-10T09:21:50;21.70;72.00
22544;DHT22;11438;52.044;8.716;2022-07-10T09:24:16;21.70;72.40
22544;DHT22;11438;52.044;8.716;2022-07-10T09:29:19;21.80;71.00
22544;DHT22;11438;52.044;8.716;2022-07-10T09:31:55;21.80;71.90
22544;DHT22;11438;52.044;8.716;2022-07-10T09:34:43;21.80;69.10
22544;DHT22;11438;52.044;8.716;2022-07-10T09:39:59;22.00;70.30
22544;DHT22;11438;52.044;8.716;2022-07-10T09:42:29;22.00;70.50
22544;DHT22;11438;52.044;8.716;2022-07-10T09:47:54;22.00;69.40
22544;DHT22;11438;52.044;8.716;2022-07-10T09:52:55;22.10;69.40
22544;DHT22;11438;52.044;8.716;2022-07-10T09:55:22;22.10;68.80
22544;DHT22;11438;52.044;8.716;2022-07-10T09:57:54;22.10;68.90
22544;DHT22;11438;52.044;8.716;2022-07-10T10:00:23;22.10;67.70
22544;DHT22;11438;52.044;8.716;2022-07-10T10:02:58;22.10;67.50
22544;DHT22;11438;52.044;8.716;2022-07-10T10:05:32;22.10;67.40
22544;DHT22;11438;52.044;8.716;2022-07-10T10:08:03;22.10;67.90
22544;DHT22;11438;52.044;8.716;2022-07-10T10:10:32;22.00;68.70
22544;DHT22;11438;52.044;8.716;2022-07-10T10:13:00;22.00;68.40
22544;DHT22;11438;52.044;8.716;2022-07-10T10:15:28;22.00;68.80
22544;DHT22;11438;52.044;8.716;2022-07-10T10:17:55;22.00;69.40
22544;DHT22;11438;52.044;8.716;2022-07-10T10:20:23;22.00;69.70
22544;DHT22;11438;52.044;8.716;2022-07-10T10:23:11;22.00;69.60
22544;DHT22;11438;52.044;8.716;2022-07-10T10:25:38;22.00;69.90
22544;DHT22;11438;52.044;8.716;2022-07-10T10:28:07;22.00;69.30
22544;DHT22;11438;52.044;8.716;2022-07-10T10:30:38;22.10;71.20
22544;DHT22;11438;52.044;8.716;2022-07-10T10:33:42;22.10;71.10
22544;DHT22;11438;52.044;8.716;2022-07-10T10:36:09;22.10;71.00
22544;DHT22;11438;52.044;8.716;2022-07-10T10:41:54;22.20;70.50
22544;DHT22;11438;52.044;8.716;2022-07-10T10:44:23;22.20;70.50
22544;DHT22;11438;52.044;8.716;2022-07-10T10:46:53;22.20;70.40
22544;DHT22;11438;52.044;8.716;2022-07-10T10:49:20;22.20;70.30
22544;DHT22;11438;52.044;8.716;2022-07-10T10:51:58;22.20;70.50
22544;DHT22;11438;52.044;8.716;2022-07-10T10:54:25;22.20;70.40
22544;DHT22;11438;52.044;8.716;2022-07-10T10:57:15;22.20;70.30
22544;DHT22;11438;52.044;8.716;2022-07-10T10:59:53;22.10;70.60
22544;DHT22;11438;52.044;8.716;2022-07-10T11:02:29;22.10;71.10
22544;DHT22;11438;52.044;8.716;2022-07-10T11:07:52;22.00;72.00
22544;DHT22;11438;52.044;8.716;2022-07-10T11:10:41;22.00;72.30
22544;DHT22;11438;52.044;8.716;2022-07-10T11:15:42;22.00;73.40
22544;DHT22;11438;52.044;8.716;2022-07-10T11:18:11;22.00;74.10
22544;DHT22;11438;52.044;8.716;2022-07-10T11:20:57;22.10;74.10
22544;DHT22;11438;52.044;8.716;2022-07-10T11:23:37;22.10;73.50
22544;DHT22;11438;52.044;8.716;2022-07-10T11:26:10;22.20;73.20
22544;DHT22;11438;52.044;8.716;2022-07-10T11:28:53;22.30;72.90
22544;DHT22;11438;52.044;8.716;2022-07-10T11:31:19;22.30;72.90
22544;DHT22;11438;52.044;8.716;2022-07-10T11:33:47;22.30;72.60
22544;DHT22;11438;52.044;8.716;2022-07-10T11:36:33;22.30;73.00
22544;DHT22;11438;52.044;8.716;2022-07-10T11:39:04;22.20;73.90
22544;DHT22;11438;52.044;8.716;2022-07-10T11:41:30;22.20;74.90
22544;DHT22;11438;52.044;8.716;2022-07-10T11:43:57;22.10;75.20
22544;DHT22;11438;52.044;8.716;2022-07-10T11:46:28;22.10;76.00
22544;DHT22;11438;52.044;8.716;2022-07-10T11:48:54;22.10;77.00
22544;DHT22;11438;52.044;8.716;2022-07-10T11:56:23;21.90;78.20
22544;DHT22;11438;52.044;8.716;2022-07-10T11:58:56;21.90;78.10
22544;DHT22;11438;52.044;8.716;2022-07-10T12:01:22;21.90;78.50
22544;DHT22;11438;52.044;8.716;2022-07-10T12:03:56;21.90;78.80
22544;DHT22;11438;52.044;8.716;2022-07-10T12:06:22;21.90;79.40
22544;DHT22;11438;52.044;8.716;2022-07-10T12:08:48;21.90;79.50
22544;DHT22;11438;52.044;8.716;2022-07-10T12:11:16;21.90;79.50
22544;DHT22;11438;52.044;8.716;2022-07-10T12:13:43;21.90;79.50
22544;DHT22;11438;52.044;8.716;2022-07-10T12:16:09;22.00;79.40
22544;DHT22;11438;52.044;8.716;2022-07-10T12:18:34;22.00;79.40
22544;DHT22;11438;52.044;8.716;2022-07-10T12:21:00;22.00;79.30
22544;DHT22;11438;52.044;8.716;2022-07-10T12:23:26;22.00;79.30
22544;DHT22;11438;52.044;8.716;2022-07-10T12:25:53;22.00;78.90
22544;DHT22;11438;52.044;8.716;2022-07-10T12:28:20;22.10;79.00
22544;DHT22;11438;52.044;8.716;2022-07-10T12:30:48;22.10;79.00
22544;DHT22;11438;52.044;8.716;2022-07-10T12:33:21;22.10;78.80
22544;DHT22;11438;52.044;8.716;2022-07-10T12:38:25;22.10;78.40
22544;DHT22;11438;52.044;8.716;2022-07-10T12:41:09;22.20;78.70
22544;DHT22;11438;52.044;8.716;2022-07-10T12:43:35;22.20;78.60
22544;DHT22;11438;52.044;8.716;2022-07-10T12:46:24;22.30;78.60
22544;DHT22;11438;52.044;8.716;2022-07-10T12:49:09;22.30;78.50
22544;DHT22;11438;52.044;8.716;2022-07-10T12:51:44;22.40;78.20
22544;DHT22;11438;52.044;8.716;2022-07-10T12:54:38;22.40;77.90
22544;DHT22;11438;52.044;8.716;2022-07-10T12:57:04;22.50;78.10
22544;DHT22;11438;52.044;8.716;2022-07-10T12:59:33;22.60;78.40
22544;DHT22;11438;52.044;8.716;2022-07-10T13:02:16;22.60;78.60
22544;DHT22;11438;52.044;8.716;2022-07-10T13:04:52;22.70;78.80
22544;DHT22;11438;52.044;8.716;2022-07-10T13:07:18;22.80;79.10
22544;DHT22;11438;52.044;8.716;2022-07-10T13:09:44;22.90;79.00
22544;DHT22;11438;52.044;8.716;2022-07-10T13:12:10;22.90;78.10
22544;DHT22;11438;52.044;8.716;2022-07-10T13:14:36;23.00;78.00
22544;DHT22;11438;52.044;8.716;2022-07-10T13:17:01;23.00;77.90
22544;DHT22;11438;52.044;8.716;2022-07-10T13:19:27;23.10;77.00
22544;DHT22;11438;52.044;8.716;2022-07-10T13:21:52;23.10;76.70
22544;DHT22;11438;52.044;8.716;2022-07-10T13:24:18;23.10;77.30
22544;DHT22;11438;52.044;8.716;2022-07-10T13:26:43;23.10;77.10
22544;DHT22;11438;52.044;8.716;2022-07-10T13:29:09;23.10;77.00
22544;DHT22;11438;52.044;8.716;2022-07-10T13:31:34;23.00;77.00
22544;DHT22;11438;52.044;8.716;2022-07-10T13:34:00;23.00;77.20
22544;DHT22;11438;52.044;8.716;2022-07-10T13:36:25;22.90;77.90
22544;DHT22;11438;52.044;8.716;2022-07-10T13:38:51;22.80;78.50
22544;DHT22;11438;52.044;8.716;2022-07-10T13:41:18;22.70;79.10
22544;DHT22;11438;52.044;8.716;2022-07-10T13:43:44;22.60;79.90
22544;DHT22;11438;52.044;8.716;2022-07-10T13:46:09;22.50;80.30
22544;DHT22;11438;52.044;8.716;2022-07-10T13:48:35;22.40;81.60
22544;DHT22;11438;52.044;8.716;2022-07-10T13:51:00;22.30;82.10
22544;DHT22;11438;52.044;8.716;2022-07-10T13:53:26;22.30;82.40
22544;DHT22;11438;52.044;8.716;2022-07-10T13:55:52;22.30;83.00
22544;DHT22;11438;52.044;8.716;2022-07-10T13:58:18;22.30;82.60
22544;DHT22;11438;52.044;8.716;2022-07-10T14:00:45;22.40;82.70
22544;DHT22;11438;52.044;8.716;2022-07-10T14:03:11;22.40;81.90
22544;DHT22;11438;52.044;8.716;2022-07-10T14:05:37;22.50;82.00
22544;DHT22;11438;52.044;8.716;2022-07-10T14:08:03;22.50;81.10
22544;DHT22;11438;52.044;8.716;2022-07-10T14:10:29;22.60;81.70
22544;DHT22;11438;52.044;8.716;2022-07-10T14:12:55;22.60;82.10
22544;DHT22;11438;52.044;8.716;2022-07-10T14:15:21;22.70;82.30
22544;DHT22;11438;52.044;8.716;2022-07-10T14:17:46;22.70;82.00
22544;DHT22;11438;52.044;8.716;2022-07-10T14:20:12;22.70;81.20
22544;DHT22;11438;52.044;8.716;2022-07-10T14:22:38;22.80;80.90
22544;DHT22;11438;52.044;8.716;2022-07-10T14:25:05;22.80;79.90
22544;DHT22;11438;52.044;8.716;2022-07-10T14:27:30;22.90;79.90
22544;DHT22;11438;52.044;8.716;2022-07-10T14:29:58;22.90;80.20
22544;DHT22;11438;52.044;8.716;2022-07-10T14:32:24;23.00;79.90
22544;DHT22;11438;52.044;8.716;2022-07-10T14:34:49;23.00;79.30
22544;DHT22;11438;52.044;8.716;2022-07-10T14:37:15;23.00;79.00
22544;DHT22;11438;52.044;8.716;2022-07-10T14:39:41;23.00;78.50
22544;DHT22;11438;52.044;8.716;2022-07-10T14:42:06;23.00;77.80
22544;DHT22;11438;52.044;8.716;2022-07-10T14:44:33;23.00;78.20
22544;DHT22;11438;52.044;8.716;2022-07-10T14:46:58;23.00;78.50
22544;DHT22;11438;52.044;8.716;2022-07-10T14:49:24;22.90;78.40
22544;DHT22;11438;52.044;8.716;2022-07-10T14:51:49;22.90;78.70
22544;DHT22;11438;52.044;8.716;2022-07-10T14:54:15;22.90;79.00
22544;DHT22;11438;52.044;8.716;2022-07-10T14:56:40;22.90;79.00
22544;DHT22;11438;52.044;8.716;2022-07-10T14:59:08;22.80;78.40
22544;DHT22;11438;52.044;8.716;2022-07-10T15:01:34;22.80;78.50
22544;DHT22;11438;52.044;8.716;2022-07-10T15:03:59;22.80;78.80
22544;DHT22;11438;52.044;8.716;2022-07-10T15:06:25;22.80;79.30
22544;DHT22;11438;52.044;8.716;2022-07-10T15:08:50;22.80;79.50
22544;DHT22;11438;52.044;8.716;2022-07-10T15:11:17;22.80;79.00
22544;DHT22;11438;52.044;8.716;2022-07-10T15:13:42;22.80;79.20
22544;DHT22;11438;52.044;8.716;2022-07-10T15:16:08;22.90;79.30
22544;DHT22;11438;52.044;8.716;2022-07-10T15:18:33;22.90;79.30
22544;DHT22;11438;52.044;8.716;2022-07-10T15:20:59;22.90;79.50
22544;DHT22;11438;52.044;8.716;2022-07-10T15:23:24;22.90;79.30
22544;DHT22;11438;52.044;8.716;2022-07-10T15:25:51;22.90;79.40
22544;DHT22;11438;52.044;8.716;2022-07-10T15:28:16;22.80;79.70
22544;DHT22;11438;52.044;8.716;2022-07-10T15:30:42;22.80;79.60
22544;DHT22;11438;52.044;8.716;2022-07-10T15:33:08;22.80;79.40
22544;DHT22;11438;52.044;8.716;2022-07-10T15:35:34;22.80;79.50
22544;DHT22;11438;52.044;8.716;2022-07-10T15:38:00;22.80;79.60
22544;DHT22;11438;52.044;8.716;2022-07-10T15:40:30;22.70;79.70
22544;DHT22;11438;52.044;8.716;2022-07-10T15:42:58;22.70;80.30
22544;DHT22;11438;52.044;8.716;2022-07-10T15:45:25;22.70;80.60
22544;DHT22;11438;52.044;8.716;2022-07-10T15:47:51;22.70;80.70
22544;DHT22;11438;52.044;8.716;2022-07-10T15:50:16;22.70;80.80
22544;DHT22;11438;52.044;8.716;2022-07-10T15:52:42;22.70;80.90
22544;DHT22;11438;52.044;8.716;2022-07-10T15:55:08;22.70;81.10
22544;DHT22;11438;52.044;8.716;2022-07-10T15:57:33;22.70;81.30
22544;DHT22;11438;52.044;8.716;2022-07-10T15:59:59;22.70;81.40
22544;DHT22;11438;52.044;8.716;2022-07-10T16:02:24;22.70;81.20